sensor_id;sensor_type;location;lat;lon;timestamp;P1;durP1;ratioP1;P2;durP2;ratioP2
19519;SDS011;9904;52.246;20.898;2022-08-11T00:01:53;8.53;;;3.63;;
19519;SDS011;9904;52.246;20.898;2022-08-11T00:04:22;6.93;;;3.20;;
19519;SDS011;9904;52.246;20.898;2022-08-11T00:06:50;8.60;;;3.17;;
19519;SDS011;9904;52.246;20.898;2022-08-11T00:09:20;4.50;;;2.90;;
19519;SDS011;9904;52.246;20.898;2022-08-11T00:11:48;6.97;;;3.00;;
19519;SDS011;9904;52.246;20.898;2022-08-11T00:14:24;9.53;;;3.37;;
19519;SDS011;9904;52.246;20.898;2022-08-11T00:17:04;7.03;;;3.23;;
19519;SDS011;9904;52.246;20.898;2022-08-11T00:19:59;6.93;;;3.20;;
19519;SDS011;9904;52.246;20.898;2022-08-11T00:22:40;9.77;;;3.40;;
19519;SDS011;9904;52.246;20.898;2022-08-11T00:25:16;6.17;;;3.13;;
19519;SDS011;9904;52.246;20.898;2022-08-11T00:27:45;7.20;;;3.03;;
19519;SDS011;9904;52.246;20.898;2022-08-11T00:30:12;10.87;;;3.37;;
19519;SDS011;9904;52.246;20.898;2022-08-11T00:32:41;6.97;;;3.17;;
19519;SDS011;9904;52.246;20.898;2022-08-11T00:35:10;7.10;;;3.13;;
19519;SDS011;9904;52.246;20.898;2022-08-11T00:37:59;6.20;;;3.27;;
19519;SDS011;9904;52.246;20.898;2022-08-11T00:40:36;8.90;;;3.43;;
19519;SDS011;9904;52.246;20.898;2022-08-11T00:46:17;6.50;;;3.00;;
19519;SDS011;9904;52.246;20.898;2022-08-11T00:52:09;6.70;;;3.33;;
19519;SDS011;9904;52.246;20.898;2022-08-11T00:57:43;4.97;;;3.03;;
19519;SDS011;9904;52.246;20.898;2022-08-11T01:00:20;8.00;;;3.27;;
19519;SDS011;9904;52.246;20.898;2022-08-11T01:11:33;10.23;;;3.70;;
19519;SDS011;9904;52.246;20.898;2022-08-11T01:19:43;8.33;;;3.33;;
19519;SDS011;9904;52.246;20.898;2022-08-11T01:25:39;8.47;;;3.03;;
19519;SDS011;9904;52.246;20.898;2022-08-11T01:31:32;7.60;;;3.20;;
19519;SDS011;9904;52.246;20.898;2022-08-11T01:53:44;9.27;;;3.77;;
19519;SDS011;9904;52.246;20.898;2022-08-11T01:59:16;10.53;;;3.33;;
19519;SDS011;9904;52.246;20.898;2022-08-11T02:01:49;8.80;;;3.50;;
19519;SDS011;9904;52.246;20.898;2022-08-11T02:04:25;10.60;;;4.23;;
19519;SDS011;9904;52.246;20.898;2022-08-11T02:13:06;14.93;;;3.70;;
19519;SDS011;9904;52.246;20.898;2022-08-11T02:15:49;8.30;;;3.80;;
19519;SDS011;9904;52.246;20.898;2022-08-11T02:18:31;7.57;;;3.33;;
19519;SDS011;9904;52.246;20.898;2022-08-11T02:21:21;10.33;;;3.00;;
19519;SDS011;9904;52.246;20.898;2022-08-11T02:24:34;8.10;;;3.30;;
19519;SDS011;9904;52.246;20.898;2022-08-11T02:27:18;9.97;;;3.40;;
19519;SDS011;9904;52.246;20.898;2022-08-11T02:29:58;9.03;;;3.60;;
19519;SDS011;9904;52.246;20.898;2022-08-11T02:32:35;6.87;;;3.10;;
19519;SDS011;9904;52.246;20.898;2022-08-11T02:35:34;5.07;;;3.10;;
19519;SDS011;9904;52.246;20.898;2022-08-11T02:40:59;5.83;;;3.37;;
19519;SDS011;9904;52.246;20.898;2022-08-11T02:51:38;7.97;;;2.80;;
19519;SDS011;9904;52.246;20.898;2022-08-11T02:57:18;9.53;;;3.50;;
19519;SDS011;9904;52.246;20.898;2022-08-11T03:00:03;8.43;;;3.30;;
19519;SDS011;9904;52.246;20.898;2022-08-11T03:02:48;10.20;;;2.77;;
19519;SDS011;9904;52.246;20.898;2022-08-11T03:11:02;7.07;;;3.37;;
19519;SDS011;9904;52.246;20.898;2022-08-11T03:19:59;6.10;;;3.10;;
19519;SDS011;9904;52.246;20.898;2022-08-11T03:23:23;9.07;;;3.50;;
19519;SDS011;9904;52.246;20.898;2022-08-11T03:25:49;8.97;;;3.27;;
19519;SDS011;9904;52.246;20.898;2022-08-11T03:30:53;7.83;;;3.40;;
19519;SDS011;9904;52.246;20.898;2022-08-11T03:34:03;9.63;;;3.37;;
19519;SDS011;9904;52.246;20.898;2022-08-11T03:39:53;8.73;;;3.17;;
19519;SDS011;9904;52.246;20.898;2022-08-11T03:45:42;11.47;;;3.60;;
19519;SDS011;9904;52.246;20.898;2022-08-11T03:48:32;9.57;;;3.30;;
19519;SDS011;9904;52.246;20.898;2022-08-11T03:59:57;8.87;;;3.47;;
19519;SDS011;9904;52.246;20.898;2022-08-11T04:05:48;10.30;;;3.90;;
19519;SDS011;9904;52.246;20.898;2022-08-11T04:11:56;6.33;;;3.60;;
19519;SDS011;9904;52.246;20.898;2022-08-11T04:20:58;8.97;;;4.10;;
19519;SDS011;9904;52.246;20.898;2022-08-11T04:23:41;8.00;;;4.43;;
19519;SDS011;9904;52.246;20.898;2022-08-11T04:38:31;9.57;;;4.63;;
19519;SDS011;9904;52.246;20.898;2022-08-11T04:47:50;11.53;;;3.17;;
19519;SDS011;9904;52.246;20.898;2022-08-11T04:54:04;10.90;;;3.40;;
19519;SDS011;9904;52.246;20.898;2022-08-11T04:57:07;11.27;;;2.93;;
19519;SDS011;9904;52.246;20.898;2022-08-11T05:00:00;13.20;;;3.03;;
19519;SDS011;9904;52.246;20.898;2022-08-11T05:03:10;13.47;;;3.73;;
19519;SDS011;9904;52.246;20.898;2022-08-11T05:06:06;18.93;;;5.70;;
19519;SDS011;9904;52.246;20.898;2022-08-11T05:11:57;15.00;;;5.77;;
19519;SDS011;9904;52.246;20.898;2022-08-11T05:14:29;14.20;;;5.80;;
19519;SDS011;9904;52.246;20.898;2022-08-11T05:17:22;15.17;;;5.23;;
19519;SDS011;9904;52.246;20.898;2022-08-11T05:20:21;14.90;;;5.63;;
19519;SDS011;9904;52.246;20.898;2022-08-11T05:23:09;15.03;;;4.80;;
19519;SDS011;9904;52.246;20.898;2022-08-11T05:25:56;12.63;;;5.03;;
19519;SDS011;9904;52.246;20.898;2022-08-11T05:29:04;11.33;;;5.20;;
19519;SDS011;9904;52.246;20.898;2022-08-11T05:32:11;15.03;;;4.50;;
19519;SDS011;9904;52.246;20.898;2022-08-11T05:35:01;18.00;;;4.60;;
19519;SDS011;9904;52.246;20.898;2022-08-11T05:40:05;17.03;;;4.20;;
19519;SDS011;9904;52.246;20.898;2022-08-11T05:43:00;11.37;;;3.97;;
19519;SDS011;9904;52.246;20.898;2022-08-11T05:45:56;9.53;;;3.20;;
19519;SDS011;9904;52.246;20.898;2022-08-11T05:48:44;7.37;;;2.70;;
19519;SDS011;9904;52.246;20.898;2022-08-11T05:51:41;10.40;;;3.10;;
19519;SDS011;9904;52.246;20.898;2022-08-11T05:54:38;14.17;;;2.90;;
19519;SDS011;9904;52.246;20.898;2022-08-11T05:57:32;6.67;;;2.77;;
19519;SDS011;9904;52.246;20.898;2022-08-11T06:00:17;9.37;;;2.83;;
19519;SDS011;9904;52.246;20.898;2022-08-11T06:02:51;8.90;;;2.73;;
19519;SDS011;9904;52.246;20.898;2022-08-11T06:05:22;8.77;;;2.37;;
19519;SDS011;9904;52.246;20.898;2022-08-11T06:07:52;6.77;;;2.83;;
19519;SDS011;9904;52.246;20.898;2022-08-11T06:10:26;6.13;;;2.33;;
19519;SDS011;9904;52.246;20.898;2022-08-11T06:12:56;12.77;;;2.47;;
19519;SDS011;9904;52.246;20.898;2022-08-11T06:15:23;8.97;;;2.40;;
19519;SDS011;9904;52.246;20.898;2022-08-11T06:17:50;7.90;;;1.83;;
19519;SDS011;9904;52.246;20.898;2022-08-11T06:20:19;11.50;;;2.00;;
19519;SDS011;9904;52.246;20.898;2022-08-11T06:22:49;6.80;;;2.07;;
19519;SDS011;9904;52.246;20.898;2022-08-11T06:25:21;7.67;;;2.20;;
19519;SDS011;9904;52.246;20.898;2022-08-11T06:27:55;9.63;;;2.05;;
19519;SDS011;9904;52.246;20.898;2022-08-11T06:30:38;13.00;;;2.30;;
19519;SDS011;9904;52.246;20.898;2022-08-11T06:33:13;6.77;;;2.07;;
19519;SDS011;9904;52.246;20.898;2022-08-11T06:35:50;9.13;;;2.67;;
19519;SDS011;9904;52.246;20.898;2022-08-11T06:46:42;12.80;;;3.50;;
19519;SDS011;9904;52.246;20.898;2022-08-11T06:49:12;6.90;;;2.60;;
19519;SDS011;9904;52.246;20.898;2022-08-11T06:52:00;15.23;;;3.28;;
19519;SDS011;9904;52.246;20.898;2022-08-11T06:54:34;13.55;;;2.92;;
19519;SDS011;9904;52.246;20.898;2022-08-11T06:57:02;14.07;;;3.30;;
19519;SDS011;9904;52.246;20.898;2022-08-11T06:59:57;16.08;;;2.75;;
19519;SDS011;9904;52.246;20.898;2022-08-11T07:02:44;15.70;;;4.30;;
19519;SDS011;9904;52.246;20.898;2022-08-11T07:05:26;10.98;;;2.40;;
19519;SDS011;9904;52.246;20.898;2022-08-11T07:08:13;10.65;;;2.55;;
19519;SDS011;9904;52.246;20.898;2022-08-11T07:14:30;27.02;;;14.13;;
19519;SDS011;9904;52.246;20.898;2022-08-11T07:17:16;17.90;;;6.60;;
19519;SDS011;9904;52.246;20.898;2022-08-11T07:19:49;16.23;;;6.75;;
19519;SDS011;9904;52.246;20.898;2022-08-11T07:22:36;12.30;;;3.60;;
19519;SDS011;9904;52.246;20.898;2022-08-11T07:25:22;8.73;;;2.10;;
19519;SDS011;9904;52.246;20.898;2022-08-11T07:28:13;10.60;;;2.40;;
19519;SDS011;9904;52.246;20.898;2022-08-11T07:31:03;12.10;;;2.40;;
19519;SDS011;9904;52.246;20.898;2022-08-11T07:33:49;7.57;;;1.73;;
19519;SDS011;9904;52.246;20.898;2022-08-11T07:36:38;5.68;;;2.10;;
19519;SDS011;9904;52.246;20.898;2022-08-11T07:39:07;9.10;;;2.22;;
19519;SDS011;9904;52.246;20.898;2022-08-11T07:41:37;13.48;;;2.20;;
19519;SDS011;9904;52.246;20.898;2022-08-11T07:44:04;9.93;;;2.30;;
19519;SDS011;9904;52.246;20.898;2022-08-11T07:46:35;7.10;;;1.85;;
19519;SDS011;9904;52.246;20.898;2022-08-11T07:49:25;13.80;;;2.03;;
19519;SDS011;9904;52.246;20.898;2022-08-11T07:52:13;7.15;;;2.25;;
19519;SDS011;9904;52.246;20.898;2022-08-11T07:55:07;4.93;;;2.03;;
19519;SDS011;9904;52.246;20.898;2022-08-11T07:57:37;6.85;;;2.05;;
19519;SDS011;9904;52.246;20.898;2022-08-11T08:00:44;7.78;;;1.75;;
19519;SDS011;9904;52.246;20.898;2022-08-11T08:03:46;5.20;;;1.85;;
19519;SDS011;9904;52.246;20.898;2022-08-11T08:06:32;14.27;;;1.80;;
19519;SDS011;9904;52.246;20.898;2022-08-11T08:09:19;6.68;;;2.30;;
19519;SDS011;9904;52.246;20.898;2022-08-11T08:12:05;9.67;;;1.90;;
19519;SDS011;9904;52.246;20.898;2022-08-11T08:14:51;3.33;;;1.60;;
19519;SDS011;9904;52.246;20.898;2022-08-11T08:17:39;3.30;;;1.70;;
19519;SDS011;9904;52.246;20.898;2022-08-11T08:20:45;8.80;;;1.93;;
19519;SDS011;9904;52.246;20.898;2022-08-11T08:23:13;8.63;;;1.87;;
19519;SDS011;9904;52.246;20.898;2022-08-11T08:25:40;6.97;;;1.60;;
19519;SDS011;9904;52.246;20.898;2022-08-11T08:28:14;4.03;;;1.90;;
19519;SDS011;9904;52.246;20.898;2022-08-11T08:30:42;2.93;;;1.33;;
19519;SDS011;9904;52.246;20.898;2022-08-11T08:33:21;3.77;;;1.27;;
19519;SDS011;9904;52.246;20.898;2022-08-11T08:35:54;6.77;;;1.60;;
19519;SDS011;9904;52.246;20.898;2022-08-11T08:41:08;3.97;;;1.80;;
19519;SDS011;9904;52.246;20.898;2022-08-11T08:43:41;6.33;;;1.80;;
19519;SDS011;9904;52.246;20.898;2022-08-11T08:46:14;5.73;;;1.50;;
19519;SDS011;9904;52.246;20.898;2022-08-11T08:48:45;9.03;;;2.30;;
19519;SDS011;9904;52.246;20.898;2022-08-11T08:51:12;7.67;;;1.90;;
19519;SDS011;9904;52.246;20.898;2022-08-11T08:54:19;8.50;;;1.60;;
19519;SDS011;9904;52.246;20.898;2022-08-11T08:56:48;4.57;;;1.43;;
19519;SDS011;9904;52.246;20.898;2022-08-11T08:59:19;5.13;;;1.43;;
19519;SDS011;9904;52.246;20.898;2022-08-11T09:01:48;5.20;;;1.93;;
19519;SDS011;9904;52.246;20.898;2022-08-11T09:04:36;3.73;;;1.20;;
19519;SDS011;9904;52.246;20.898;2022-08-11T09:07:14;5.23;;;1.30;;
19519;SDS011;9904;52.246;20.898;2022-08-11T09:09:43;4.60;;;1.50;;
19519;SDS011;9904;52.246;20.898;2022-08-11T09:12:12;6.37;;;1.30;;
19519;SDS011;9904;52.246;20.898;2022-08-11T09:14:41;7.90;;;1.73;;
19519;SDS011;9904;52.246;20.898;2022-08-11T09:17:49;7.07;;;1.40;;
19519;SDS011;9904;52.246;20.898;2022-08-11T09:20:17;4.10;;;1.73;;
19519;SDS011;9904;52.246;20.898;2022-08-11T09:22:46;4.43;;;1.53;;
19519;SDS011;9904;52.246;20.898;2022-08-11T09:25:54;4.20;;;1.50;;
19519;SDS011;9904;52.246;20.898;2022-08-11T09:28:41;3.60;;;1.53;;
19519;SDS011;9904;52.246;20.898;2022-08-11T09:31:09;5.00;;;1.60;;
19519;SDS011;9904;52.246;20.898;2022-08-11T09:33:37;3.93;;;1.40;;
19519;SDS011;9904;52.246;20.898;2022-08-11T09:36:07;2.77;;;1.27;;
19519;SDS011;9904;52.246;20.898;2022-08-11T09:38:53;3.33;;;1.20;;
19519;SDS011;9904;52.246;20.898;2022-08-11T09:41:40;4.30;;;1.20;;
19519;SDS011;9904;52.246;20.898;2022-08-11T09:44:31;2.43;;;1.07;;
19519;SDS011;9904;52.246;20.898;2022-08-11T09:47:20;9.23;;;1.40;;
19519;SDS011;9904;52.246;20.898;2022-08-11T09:49:48;7.20;;;1.40;;
19519;SDS011;9904;52.246;20.898;2022-08-11T09:52:18;8.30;;;1.43;;
19519;SDS011;9904;52.246;20.898;2022-08-11T09:54:46;3.03;;;1.20;;
19519;SDS011;9904;52.246;20.898;2022-08-11T09:57:16;5.80;;;1.00;;
19519;SDS011;9904;52.246;20.898;2022-08-11T10:00:03;2.73;;;1.00;;
19519;SDS011;9904;52.246;20.898;2022-08-11T10:02:40;2.33;;;0.73;;
19519;SDS011;9904;52.246;20.898;2022-08-11T10:05:09;3.77;;;0.80;;
19519;SDS011;9904;52.246;20.898;2022-08-11T10:07:55;1.47;;;0.60;;
19519;SDS011;9904;52.246;20.898;2022-08-11T10:10:22;3.90;;;1.03;;
19519;SDS011;9904;52.246;20.898;2022-08-11T10:12:57;5.03;;;0.90;;
19519;SDS011;9904;52.246;20.898;2022-08-11T10:15:25;5.40;;;0.90;;
19519;SDS011;9904;52.246;20.898;2022-08-11T10:18:32;3.30;;;0.90;;
19519;SDS011;9904;52.246;20.898;2022-08-11T10:21:12;6.03;;;0.90;;
19519;SDS011;9904;52.246;20.898;2022-08-11T10:23:40;1.63;;;0.70;;
19519;SDS011;9904;52.246;20.898;2022-08-11T10:26:31;3.50;;;1.20;;
19519;SDS011;9904;52.246;20.898;2022-08-11T10:29:19;3.57;;;1.20;;
19519;SDS011;9904;52.246;20.898;2022-08-11T10:32:16;2.47;;;0.97;;
19519;SDS011;9904;52.246;20.898;2022-08-11T10:35:23;4.87;;;0.63;;
19519;SDS011;9904;52.246;20.898;2022-08-11T10:37:51;3.37;;;0.60;;
19519;SDS011;9904;52.246;20.898;2022-08-11T10:40:34;2.30;;;0.73;;
19519;SDS011;9904;52.246;20.898;2022-08-11T10:43:03;3.73;;;0.70;;
19519;SDS011;9904;52.246;20.898;2022-08-11T10:45:36;1.87;;;1.00;;
19519;SDS011;9904;52.246;20.898;2022-08-11T10:48:24;7.40;;;0.80;;
19519;SDS011;9904;52.246;20.898;2022-08-11T10:50:52;4.50;;;1.07;;
19519;SDS011;9904;52.246;20.898;2022-08-11T10:53:41;2.43;;;0.83;;
19519;SDS011;9904;52.246;20.898;2022-08-11T10:56:28;4.77;;;0.80;;
19519;SDS011;9904;52.246;20.898;2022-08-11T10:59:14;4.60;;;0.80;;
19519;SDS011;9904;52.246;20.898;2022-08-11T11:01:41;4.07;;;0.80;;
19519;SDS011;9904;52.246;20.898;2022-08-11T11:04:16;4.90;;;1.20;;
19519;SDS011;9904;52.246;20.898;2022-08-11T11:06:48;2.83;;;0.67;;
19519;SDS011;9904;52.246;20.898;2022-08-11T11:09:18;2.50;;;0.80;;
19519;SDS011;9904;52.246;20.898;2022-08-11T11:11:49;1.53;;;1.00;;
19519;SDS011;9904;52.246;20.898;2022-08-11T11:14:41;3.20;;;0.80;;
19519;SDS011;9904;52.246;20.898;2022-08-11T11:17:36;2.10;;;0.90;;
19519;SDS011;9904;52.246;20.898;2022-08-11T11:20:25;2.23;;;1.07;;
19519;SDS011;9904;52.246;20.898;2022-08-11T11:23:05;4.77;;;1.20;;
19519;SDS011;9904;52.246;20.898;2022-08-11T11:31:31;3.13;;;0.93;;
19519;SDS011;9904;52.246;20.898;2022-08-11T11:34:14;6.10;;;1.20;;
19519;SDS011;9904;52.246;20.898;2022-08-11T11:36:55;4.03;;;1.00;;
19519;SDS011;9904;52.246;20.898;2022-08-11T11:39:24;2.27;;;0.97;;
19519;SDS011;9904;52.246;20.898;2022-08-11T11:41:53;5.13;;;0.90;;
19519;SDS011;9904;52.246;20.898;2022-08-11T11:44:22;3.77;;;1.10;;
19519;SDS011;9904;52.246;20.898;2022-08-11T11:46:49;3.37;;;1.00;;
19519;SDS011;9904;52.246;20.898;2022-08-11T11:49:17;3.80;;;0.90;;
19519;SDS011;9904;52.246;20.898;2022-08-11T11:51:48;2.80;;;0.83;;
19519;SDS011;9904;52.246;20.898;2022-08-11T11:54:21;3.70;;;0.80;;
19519;SDS011;9904;52.246;20.898;2022-08-11T11:56:53;4.23;;;0.83;;
19519;SDS011;9904;52.246;20.898;2022-08-11T11:59:21;2.67;;;0.87;;
19519;SDS011;9904;52.246;20.898;2022-08-11T12:02:08;3.27;;;1.03;;
19519;SDS011;9904;52.246;20.898;2022-08-11T12:04:40;3.13;;;0.80;;
19519;SDS011;9904;52.246;20.898;2022-08-11T12:07:09;4.33;;;1.20;;
19519;SDS011;9904;52.246;20.898;2022-08-11T12:10:02;3.60;;;0.93;;
19519;SDS011;9904;52.246;20.898;2022-08-11T12:12:29;3.97;;;0.93;;
19519;SDS011;9904;52.246;20.898;2022-08-11T12:15:15;4.88;;;1.25;;
19519;SDS011;9904;52.246;20.898;2022-08-11T12:18:04;5.90;;;0.83;;
19519;SDS011;9904;52.246;20.898;2022-08-11T12:20:31;3.60;;;0.90;;
19519;SDS011;9904;52.246;20.898;2022-08-11T12:22:59;2.90;;;0.80;;
19519;SDS011;9904;52.246;20.898;2022-08-11T12:25:45;5.23;;;0.63;;
19519;SDS011;9904;52.246;20.898;2022-08-11T12:28:50;1.13;;;0.60;;
19519;SDS011;9904;52.246;20.898;2022-08-11T12:31:17;2.33;;;0.80;;
19519;SDS011;9904;52.246;20.898;2022-08-11T12:33:47;1.83;;;0.77;;
19519;SDS011;9904;52.246;20.898;2022-08-11T12:36:14;5.60;;;1.10;;
19519;SDS011;9904;52.246;20.898;2022-08-11T12:38:43;3.70;;;1.10;;
19519;SDS011;9904;52.246;20.898;2022-08-11T12:41:17;9.60;;;0.80;;
19519;SDS011;9904;52.246;20.898;2022-08-11T12:44:04;1.37;;;0.67;;
19519;SDS011;9904;52.246;20.898;2022-08-11T12:46:50;2.60;;;0.80;;
19519;SDS011;9904;52.246;20.898;2022-08-11T12:49:18;1.20;;;0.70;;
19519;SDS011;9904;52.246;20.898;2022-08-11T12:52:11;3.60;;;0.77;;
19519;SDS011;9904;52.246;20.898;2022-08-11T12:54:54;6.23;;;0.80;;
19519;SDS011;9904;52.246;20.898;2022-08-11T13:00:31;0.60;;;0.60;;
19519;SDS011;9904;52.246;20.898;2022-08-11T13:03:17;1.97;;;0.80;;
19519;SDS011;9904;52.246;20.898;2022-08-11T13:06:04;2.20;;;0.63;;
19519;SDS011;9904;52.246;20.898;2022-08-11T13:08:32;1.57;;;0.60;;
19519;SDS011;9904;52.246;20.898;2022-08-11T13:11:00;2.47;;;0.80;;
19519;SDS011;9904;52.246;20.898;2022-08-11T13:13:47;3.50;;;0.80;;
19519;SDS011;9904;52.246;20.898;2022-08-11T13:16:22;2.43;;;0.50;;
19519;SDS011;9904;52.246;20.898;2022-08-11T13:18:51;3.60;;;1.00;;
19519;SDS011;9904;52.246;20.898;2022-08-11T13:21:18;3.20;;;0.87;;
19519;SDS011;9904;52.246;20.898;2022-08-11T13:23:47;2.10;;;0.90;;
19519;SDS011;9904;52.246;20.898;2022-08-11T13:26:27;5.80;;;0.90;;
19519;SDS011;9904;52.246;20.898;2022-08-11T13:29:18;4.07;;;0.80;;
19519;SDS011;9904;52.246;20.898;2022-08-11T13:31:46;5.50;;;0.90;;
19519;SDS011;9904;52.246;20.898;2022-08-11T13:34:14;2.30;;;0.70;;
19519;SDS011;9904;52.246;20.898;2022-08-11T13:36:42;0.80;;;0.60;;
19519;SDS011;9904;52.246;20.898;2022-08-11T13:39:09;1.70;;;0.80;;
19519;SDS011;9904;52.246;20.898;2022-08-11T13:41:36;3.53;;;1.10;;
19519;SDS011;9904;52.246;20.898;2022-08-11T13:44:08;7.10;;;0.80;;
19519;SDS011;9904;52.246;20.898;2022-08-11T13:46:36;2.57;;;0.90;;
19519;SDS011;9904;52.246;20.898;2022-08-11T13:49:05;1.70;;;0.77;;
19519;SDS011;9904;52.246;20.898;2022-08-11T13:51:35;3.70;;;0.60;;
19519;SDS011;9904;52.246;20.898;2022-08-11T13:56:29;6.07;;;1.23;;
19519;SDS011;9904;52.246;20.898;2022-08-11T13:58:58;2.77;;;1.10;;
19519;SDS011;9904;52.246;20.898;2022-08-11T14:01:27;3.80;;;1.27;;
19519;SDS011;9904;52.246;20.898;2022-08-11T14:04:18;5.40;;;0.95;;
19519;SDS011;9904;52.246;20.898;2022-08-11T14:07:01;3.63;;;0.80;;
19519;SDS011;9904;52.246;20.898;2022-08-11T14:09:33;4.37;;;0.70;;
19519;SDS011;9904;52.246;20.898;2022-08-11T14:12:06;3.77;;;1.00;;
19519;SDS011;9904;52.246;20.898;2022-08-11T14:15:04;4.82;;;0.80;;
19519;SDS011;9904;52.246;20.898;2022-08-11T14:17:35;5.03;;;0.90;;
19519;SDS011;9904;52.246;20.898;2022-08-11T14:20:15;4.17;;;0.87;;
19519;SDS011;9904;52.246;20.898;2022-08-11T14:23:02;7.13;;;1.90;;
19519;SDS011;9904;52.246;20.898;2022-08-11T14:25:29;2.70;;;1.23;;
19519;SDS011;9904;52.246;20.898;2022-08-11T14:28:16;5.57;;;1.08;;
19519;SDS011;9904;52.246;20.898;2022-08-11T14:31:01;4.60;;;1.20;;
19519;SDS011;9904;52.246;20.898;2022-08-11T14:33:30;6.90;;;1.17;;
19519;SDS011;9904;52.246;20.898;2022-08-11T14:36:18;4.00;;;1.20;;
19519;SDS011;9904;52.246;20.898;2022-08-11T14:38:46;2.35;;;1.10;;
19519;SDS011;9904;52.246;20.898;2022-08-11T14:41:13;5.53;;;1.17;;
19519;SDS011;9904;52.246;20.898;2022-08-11T14:43:59;3.57;;;1.03;;
19519;SDS011;9904;52.246;20.898;2022-08-11T14:46:45;1.50;;;0.90;;
19519;SDS011;9904;52.246;20.898;2022-08-11T14:49:49;3.13;;;0.90;;
19519;SDS011;9904;52.246;20.898;2022-08-11T14:52:35;3.90;;;1.10;;
19519;SDS011;9904;52.246;20.898;2022-08-11T14:55:03;5.23;;;1.10;;
19519;SDS011;9904;52.246;20.898;2022-08-11T14:57:49;5.50;;;1.10;;
19519;SDS011;9904;52.246;20.898;2022-08-11T15:00:21;4.70;;;1.03;;
19519;SDS011;9904;52.246;20.898;2022-08-11T15:02:48;3.57;;;1.07;;
19519;SDS011;9904;52.246;20.898;2022-08-11T15:05:33;8.33;;;1.20;;
19519;SDS011;9904;52.246;20.898;2022-08-11T15:08:01;11.00;;;1.43;;
19519;SDS011;9904;52.246;20.898;2022-08-11T15:10:28;20.20;;;1.73;;
19519;SDS011;9904;52.246;20.898;2022-08-11T15:12:54;4.93;;;1.13;;
19519;SDS011;9904;52.246;20.898;2022-08-11T15:15:21;6.90;;;1.20;;
19519;SDS011;9904;52.246;20.898;2022-08-11T15:18:09;7.30;;;1.30;;
19519;SDS011;9904;52.246;20.898;2022-08-11T15:20:41;10.53;;;1.27;;
19519;SDS011;9904;52.246;20.898;2022-08-11T15:23:28;3.60;;;1.00;;
19519;SDS011;9904;52.246;20.898;2022-08-11T15:26:26;4.00;;;1.00;;
19519;SDS011;9904;52.246;20.898;2022-08-11T15:29:22;2.43;;;1.00;;
19519;SDS011;9904;52.246;20.898;2022-08-11T15:32:09;9.10;;;1.20;;
19519;SDS011;9904;52.246;20.898;2022-08-11T15:34:48;2.63;;;0.73;;
19519;SDS011;9904;52.246;20.898;2022-08-11T15:37:35;6.53;;;1.20;;
19519;SDS011;9904;52.246;20.898;2022-08-11T15:40:08;2.73;;;1.20;;
19519;SDS011;9904;52.246;20.898;2022-08-11T15:43:18;2.57;;;0.97;;
19519;SDS011;9904;52.246;20.898;2022-08-11T15:46:07;7.73;;;1.80;;
19519;SDS011;9904;52.246;20.898;2022-08-11T15:48:41;8.83;;;1.10;;
19519;SDS011;9904;52.246;20.898;2022-08-11T15:51:13;4.00;;;0.80;;
19519;SDS011;9904;52.246;20.898;2022-08-11T15:53:51;6.83;;;1.10;;
19519;SDS011;9904;52.246;20.898;2022-08-11T15:56:23;6.03;;;1.20;;
19519;SDS011;9904;52.246;20.898;2022-08-11T15:58:52;5.73;;;1.40;;
19519;SDS011;9904;52.246;20.898;2022-08-11T16:01:59;4.97;;;1.50;;
19519;SDS011;9904;52.246;20.898;2022-08-11T16:04:57;3.93;;;1.10;;
19519;SDS011;9904;52.246;20.898;2022-08-11T16:07:25;10.50;;;1.20;;
19519;SDS011;9904;52.246;20.898;2022-08-11T16:09:56;12.00;;;4.70;;
19519;SDS011;9904;52.246;20.898;2022-08-11T16:12:29;6.53;;;2.33;;
19519;SDS011;9904;52.246;20.898;2022-08-11T16:15:00;6.70;;;1.47;;
19519;SDS011;9904;52.246;20.898;2022-08-11T16:17:59;15.00;;;2.17;;
19519;SDS011;9904;52.246;20.898;2022-08-11T16:20:29;13.80;;;1.60;;
19519;SDS011;9904;52.246;20.898;2022-08-11T16:22:58;4.87;;;1.30;;
19519;SDS011;9904;52.246;20.898;2022-08-11T16:25:28;5.43;;;1.20;;
19519;SDS011;9904;52.246;20.898;2022-08-11T16:28:15;3.47;;;1.20;;
19519;SDS011;9904;52.246;20.898;2022-08-11T16:30:45;2.77;;;1.20;;
19519;SDS011;9904;52.246;20.898;2022-08-11T16:33:12;5.47;;;1.07;;
19519;SDS011;9904;52.246;20.898;2022-08-11T16:36:00;6.03;;;1.23;;
19519;SDS011;9904;52.246;20.898;2022-08-11T16:38:47;5.97;;;1.40;;
19519;SDS011;9904;52.246;20.898;2022-08-11T16:41:15;5.13;;;1.30;;
19519;SDS011;9904;52.246;20.898;2022-08-11T16:44:02;4.73;;;1.40;;
19519;SDS011;9904;52.246;20.898;2022-08-11T16:47:05;5.50;;;1.40;;
19519;SDS011;9904;52.246;20.898;2022-08-11T16:49:37;6.57;;;1.60;;
19519;SDS011;9904;52.246;20.898;2022-08-11T16:52:09;4.93;;;1.30;;
19519;SDS011;9904;52.246;20.898;2022-08-11T16:54:39;4.10;;;1.17;;
19519;SDS011;9904;52.246;20.898;2022-08-11T16:57:17;12.27;;;1.50;;
19519;SDS011;9904;52.246;20.898;2022-08-11T17:00:07;3.60;;;1.37;;
19519;SDS011;9904;52.246;20.898;2022-08-11T17:02:45;3.20;;;1.37;;
19519;SDS011;9904;52.246;20.898;2022-08-11T17:05:34;7.33;;;1.80;;
19519;SDS011;9904;52.246;20.898;2022-08-11T17:08:25;7.37;;;1.20;;
19519;SDS011;9904;52.246;20.898;2022-08-11T17:11:23;6.40;;;1.60;;
19519;SDS011;9904;52.246;20.898;2022-08-11T17:14:21;14.00;;;1.60;;
19519;SDS011;9904;52.246;20.898;2022-08-11T17:17:14;8.47;;;2.37;;
19519;SDS011;9904;52.246;20.898;2022-08-11T17:19:47;6.10;;;1.60;;
19519;SDS011;9904;52.246;20.898;2022-08-11T17:22:36;5.83;;;1.43;;
19519;SDS011;9904;52.246;20.898;2022-08-11T17:25:23;14.10;;;1.57;;
19519;SDS011;9904;52.246;20.898;2022-08-11T17:27:50;3.10;;;1.40;;
19519;SDS011;9904;52.246;20.898;2022-08-11T17:30:17;7.13;;;1.40;;
19519;SDS011;9904;52.246;20.898;2022-08-11T17:32:46;3.43;;;1.53;;
19519;SDS011;9904;52.246;20.898;2022-08-11T17:35:35;6.70;;;1.50;;
19519;SDS011;9904;52.246;20.898;2022-08-11T17:38:07;10.50;;;1.47;;
19519;SDS011;9904;52.246;20.898;2022-08-11T17:40:38;4.90;;;1.50;;
19519;SDS011;9904;52.246;20.898;2022-08-11T17:43:26;5.23;;;1.53;;
19519;SDS011;9904;52.246;20.898;2022-08-11T17:46:14;10.03;;;1.80;;
19519;SDS011;9904;52.246;20.898;2022-08-11T17:49:00;5.93;;;1.77;;
19519;SDS011;9904;52.246;20.898;2022-08-11T17:51:27;5.50;;;1.80;;
19519;SDS011;9904;52.246;20.898;2022-08-11T17:54:13;6.93;;;1.63;;
19519;SDS011;9904;52.246;20.898;2022-08-11T17:57:01;6.67;;;1.93;;
19519;SDS011;9904;52.246;20.898;2022-08-11T17:59:47;6.87;;;1.90;;
19519;SDS011;9904;52.246;20.898;2022-08-11T18:02:20;8.47;;;1.93;;
19519;SDS011;9904;52.246;20.898;2022-08-11T18:05:08;8.23;;;2.50;;
19519;SDS011;9904;52.246;20.898;2022-08-11T18:07:40;9.80;;;3.53;;
19519;SDS011;9904;52.246;20.898;2022-08-11T18:10:26;10.00;;;2.17;;
19519;SDS011;9904;52.246;20.898;2022-08-11T18:13:15;9.43;;;1.70;;
19519;SDS011;9904;52.246;20.898;2022-08-11T18:16:01;4.67;;;1.90;;
19519;SDS011;9904;52.246;20.898;2022-08-11T18:18:47;4.93;;;1.73;;
19519;SDS011;9904;52.246;20.898;2022-08-11T18:21:33;9.23;;;2.30;;
19519;SDS011;9904;52.246;20.898;2022-08-11T18:24:40;4.63;;;1.80;;
19519;SDS011;9904;52.246;20.898;2022-08-11T18:27:29;7.13;;;1.83;;
19519;SDS011;9904;52.246;20.898;2022-08-11T18:30:16;10.67;;;2.07;;
19519;SDS011;9904;52.246;20.898;2022-08-11T18:33:02;8.17;;;2.47;;
19519;SDS011;9904;52.246;20.898;2022-08-11T18:36:09;14.03;;;3.50;;
19519;SDS011;9904;52.246;20.898;2022-08-11T18:38:56;5.97;;;2.90;;
19519;SDS011;9904;52.246;20.898;2022-08-11T18:41:43;8.40;;;3.23;;
19519;SDS011;9904;52.246;20.898;2022-08-11T18:44:29;13.70;;;4.40;;
19519;SDS011;9904;52.246;20.898;2022-08-11T18:47:15;9.20;;;4.13;;
19519;SDS011;9904;52.246;20.898;2022-08-11T18:50:04;14.27;;;4.70;;
19519;SDS011;9904;52.246;20.898;2022-08-11T18:53:04;13.87;;;4.10;;